Time;durP1;ratioP1;P1;durP2;ratioP2;P2;SDS_P1;SDS_P2;PMS_P1;PMS_P2;Temp;Humidity;BMP_temperature;BMP_pressure;BME280_temperature;BME280_humidity;BME280_pressure;Samples;Min_cycle;Max_cycle;Signal;HPM_P1;HPM_P2
2022/06/29 00:01:57;;;;;;;9.13;3.72;;;15.50;99.90;;;;;;5071934;28;20040;-45
2022/06/29 00:04:22;;;;;;;6.85;3.22;;;17.00;99.90;;;;;;5072809;28;20086;-43
2022/06/29 00:06:48;;;;;;;10.05;3.53;;;15.60;99.90;;;;;;5071788;28;20420;-43
2022/06/29 00:09:14;;;;;;;10.15;3.55;;;17.80;99.90;;;;;;5072093;28;20044;-42
2022/06/29 00:11:39;;;;;;;10.30;3.92;;;15.90;99.90;;;;;;5071175;28;20052;-46
2022/06/29 00:14:07;;;;;;;8.30;3.28;;;15.70;99.90;;;;;;5073588;28;20038;-44
2022/06/29 00:16:33;;;;;;;8.45;3.38;;;16.40;99.90;;;;;;5072122;28;20492;-44
2022/06/29 00:18:59;;;;;;;6.10;3.05;;;15.40;99.90;;;;;;5071854;28;20032;-43
2022/06/29 00:21:26;;;;;;;10.32;3.42;;;16.40;99.90;;;;;;5073078;28;20043;-48
2022/06/29 00:23:52;;;;;;;6.10;3.03;;;15.50;99.90;;;;;;5072871;28;20040;-44
2022/06/29 00:26:18;;;;;;;8.20;3.30;;;15.50;99.90;;;;;;5072856;28;20397;-44
2022/06/29 00:28:43;;;;;;;8.40;3.47;;;15.40;99.90;;;;;;5072792;28;20420;-44
2022/06/29 00:31:09;;;;;;;7.80;3.88;;;15.40;99.90;;;;;;5076179;28;20600;-44
2022/06/29 00:33:35;;;;;;;6.22;3.10;;;17.00;99.90;;;;;;5077146;28;20051;-44
2022/06/29 00:36:00;;;;;;;7.88;3.65;;;15.50;99.90;;;;;;5074853;28;20412;-43
2022/06/29 00:38:26;;;;;;;6.03;2.80;;;16.40;99.90;;;;;;5076140;28;20408;-43
2022/06/29 00:40:52;;;;;;;8.63;3.42;;;15.60;99.90;;;;;;5075356;28;20090;-43
2022/06/29 00:43:17;;;;;;;9.85;3.20;;;15.20;99.90;;;;;;5074585;28;20085;-47
2022/06/29 00:45:43;;;;;;;7.63;3.97;;;15.40;99.90;;;;;;5074251;28;20075;-43
2022/06/29 00:48:09;;;;;;;8.80;3.20;;;15.30;99.90;;;;;;5074755;28;20072;-43
2022/06/29 00:50:38;;;;;;;9.38;3.80;;;17.00;99.90;;;;;;5074657;28;20076;-45
2022/06/29 00:53:05;;;;;;;8.85;4.00;;;15.30;99.90;;;;;;5075968;28;20041;-44
2022/06/29 00:55:35;;;;;;;8.98;3.80;;;15.60;99.90;;;;;;5075729;28;20508;-44
2022/06/29 00:58:05;;;;;;;10.65;4.65;;;15.10;99.90;;;;;;5073245;28;20036;-45
2022/06/29 01:00:32;;;;;;;6.97;3.38;;;15.10;99.90;;;;;;5074328;28;20592;-43
2022/06/29 01:03:01;;;;;;;8.20;3.25;;;15.20;99.90;;;;;;5074947;28;20505;-45
2022/06/29 01:05:28;;;;;;;7.40;3.35;;;14.90;99.90;;;;;;5074587;28;20048;-44
2022/06/29 01:07:56;;;;;;;6.53;3.33;;;15.90;99.90;;;;;;5075233;28;20837;-47
2022/06/29 01:10:22;;;;;;;10.00;4.25;;;14.90;99.90;;;;;;5074464;28;20036;-44
2022/06/29 01:12:49;;;;;;;5.72;3.38;;;15.00;99.90;;;;;;5074291;28;20044;-45
2022/06/29 01:15:14;;;;;;;8.70;3.90;;;14.80;99.90;;;;;;5075546;28;20506;-46
2022/06/29 01:17:40;;;;;;;6.25;3.42;;;15.50;99.90;;;;;;5073635;28;20028;-48
2022/06/29 01:20:08;;;;;;;7.88;4.00;;;14.80;99.90;;;;;;5074452;28;20092;-46
2022/06/29 01:22:33;;;;;;;7.32;4.35;;;14.70;99.90;;;;;;5074701;28;20071;-45
2022/06/29 01:24:59;;;;;;;10.50;4.38;;;14.70;99.90;;;;;;5075905;28;20138;-47
2022/06/29 01:27:25;;;;;;;7.38;4.03;;;14.90;99.90;;;;;;5072355;28;20076;-44
2022/06/29 01:29:51;;;;;;;11.60;4.88;;;16.10;99.90;;;;;;5074281;28;20044;-47
2022/06/29 01:32:17;;;;;;;10.25;4.35;;;14.50;99.90;;;;;;5074123;28;20436;-49
2022/06/29 01:34:45;;;;;;;7.05;4.00;;;14.80;99.90;;;;;;5075368;28;20432;-47
2022/06/29 01:37:11;;;;;;;9.95;4.18;;;13.70;99.90;;;;;;5075039;28;20032;-49
2022/06/29 01:39:37;;;;;;;8.45;3.88;;;16.70;99.90;;;;;;5075117;28;20044;-47
2022/06/29 01:42:06;;;;;;;7.53;3.90;;;16.40;99.90;;;;;;5074745;28;20044;-49
2022/06/29 01:44:34;;;;;;;7.55;4.45;;;14.80;99.90;;;;;;5075317;28;21134;-48
2022/06/29 01:47:01;;;;;;;10.43;4.38;;;15.10;99.90;;;;;;5075238;28;20067;-46
2022/06/29 01:49:28;;;;;;;7.10;4.10;;;14.80;99.90;;;;;;5076120;28;20059;-49
2022/06/29 01:51:54;;;;;;;8.18;4.22;;;14.80;99.90;;;;;;5073850;28;20052;-49
2022/06/29 01:54:20;;;;;;;7.47;4.53;;;14.50;99.90;;;;;;5074241;28;20036;-47
2022/06/29 01:56:46;;;;;;;6.28;4.10;;;14.90;99.90;;;;;;5070937;28;20055;-46
2022/06/29 01:59:12;;;;;;;11.18;4.32;;;14.90;99.90;;;;;;5071967;28;20487;-47
2022/06/29 02:01:37;;;;;;;8.02;4.05;;;15.60;99.90;;;;;;5073891;28;20044;-47
2022/06/29 02:04:03;;;;;;;12.70;5.25;;;14.80;99.90;;;;;;5073490;28;20035;-48
2022/06/29 02:06:31;;;;;;;10.90;4.35;;;14.90;99.90;;;;;;5073133;28;20044;-49
2022/06/29 02:08:57;;;;;;;7.93;4.40;;;15.10;99.90;;;;;;5073101;28;20040;-48
2022/06/29 02:11:23;;;;;;;7.38;4.25;;;15.90;99.90;;;;;;5073645;28;20378;-46
2022/06/29 02:13:50;;;;;;;8.13;4.05;;;15.80;99.90;;;;;;5072565;28;20349;-48
2022/06/29 02:16:16;;;;;;;11.68;4.63;;;15.70;99.90;;;;;;5072897;28;20044;-45
2022/06/29 02:18:42;;;;;;;10.43;4.30;;;15.00;99.90;;;;;;5073160;28;20108;-46
2022/06/29 02:21:08;;;;;;;10.45;4.57;;;15.20;99.90;;;;;;5071747;28;20046;-47
2022/06/29 02:23:34;;;;;;;7.55;4.25;;;15.10;99.90;;;;;;5072141;28;20079;-48
2022/06/29 02:26:00;;;;;;;6.60;3.95;;;15.90;99.90;;;;;;5071403;28;20595;-47
2022/06/29 02:28:26;;;;;;;9.55;3.90;;;14.90;99.90;;;;;;5072215;28;20031;-48
2022/06/29 02:36:26;;;;;;;8.00;3.75;;;15.30;99.90;;;;;;5073484;28;20412;-44
2022/06/29 02:38:52;;;;;;;6.00;3.45;;;15.20;99.90;;;;;;5072671;28;20043;-45
2022/06/29 02:41:18;;;;;;;9.23;3.53;;;15.20;99.90;;;;;;5074400;28;20093;-44
2022/06/29 02:43:45;;;;;;;8.15;3.50;;;15.20;99.90;;;;;;5073930;28;20063;-46
2022/06/29 02:46:10;;;;;;;8.30;4.15;;;15.20;99.90;;;;;;5074081;28;20043;-45
2022/06/29 02:48:36;;;;;;;6.32;3.85;;;15.20;99.90;;;;;;5070947;28;20050;-48
2022/06/29 02:51:02;;;;;;;8.13;3.80;;;15.30;99.90;;;;;;5074302;28;20097;-46
2022/06/29 02:53:28;;;;;;;6.70;3.05;;;15.40;99.90;;;;;;5073992;28;20039;-45
2022/06/29 02:55:55;;;;;;;6.25;3.35;;;15.30;99.90;;;;;;5073755;28;20032;-49
2022/06/29 02:58:21;;;;;;;6.88;3.63;;;15.30;99.90;;;;;;5072969;28;20032;-47
2022/06/29 03:00:47;;;;;;;5.88;3.42;;;16.30;99.90;;;;;;5073599;28;21630;-45
2022/06/29 03:03:12;;;;;;;6.20;3.00;;;15.30;99.90;;;;;;5072823;28;20044;-45
2022/06/29 03:05:40;;;;;;;8.32;3.55;;;16.00;99.90;;;;;;5071564;28;20441;-46
2022/06/29 03:08:06;;;;;;;7.72;3.55;;;15.40;99.90;;;;;;5072097;28;20040;-45
2022/06/29 03:10:32;;;;;;;6.38;3.13;;;15.40;99.90;;;;;;5071932;28;20550;-47
2022/06/29 03:12:57;;;;;;;7.13;3.85;;;16.50;99.90;;;;;;5073174;28;20036;-43
2022/06/29 03:15:25;;;;;;;6.95;3.70;;;17.30;99.90;;;;;;5072489;28;20571;-44
2022/06/29 03:17:52;;;;;;;9.43;4.25;;;17.40;99.90;;;;;;5072166;28;20040;-44
2022/06/29 03:20:20;;;;;;;7.50;3.00;;;15.40;99.90;;;;;;5072735;28;21119;-42
2022/06/29 03:22:48;;;;;;;8.35;3.13;;;15.30;99.90;;;;;;5072176;28;20086;-43
2022/06/29 03:25:17;;;;;;;8.48;3.63;;;15.30;99.90;;;;;;5073760;28;20047;-44
2022/06/29 03:27:43;;;;;;;6.20;3.78;;;15.40;99.90;;;;;;5072317;28;20040;-43
2022/06/29 03:30:11;;;;;;;7.78;3.60;;;15.30;99.90;;;;;;5070459;28;20044;-45
2022/06/29 03:32:38;;;;;;;9.77;3.58;;;15.20;99.90;;;;;;5072098;28;20199;-43
2022/06/29 03:35:05;;;;;;;6.32;3.83;;;15.20;99.90;;;;;;5071722;28;20233;-44
2022/06/29 03:37:30;;;;;;;11.98;4.70;;;15.30;99.90;;;;;;5071883;28;20122;-43
2022/06/29 03:39:56;;;;;;;8.48;3.90;;;15.20;99.90;;;;;;5071912;28;20941;-44
2022/06/29 03:42:22;;;;;;;6.68;3.88;;;13.00;99.90;;;;;;5071587;28;20081;-44
2022/06/29 03:44:50;;;;;;;6.53;4.10;;;15.30;99.90;;;;;;5071385;28;20048;-44
2022/06/29 03:47:16;;;;;;;7.93;3.90;;;15.10;99.90;;;;;;5071642;28;20097;-43
2022/06/29 03:49:41;;;;;;;5.78;3.75;;;15.70;99.90;;;;;;5071854;28;20423;-48
2022/06/29 03:52:09;;;;;;;6.45;3.88;;;15.10;99.90;;;;;;5071554;28;20047;-44
2022/06/29 03:54:37;;;;;;;7.60;4.78;;;15.00;99.90;;;;;;5072375;28;20032;-46
2022/06/29 03:57:03;;;;;;;8.00;4.40;;;15.50;99.90;;;;;;5070836;28;20047;-46
2022/06/29 03:59:28;;;;;;;8.88;4.28;;;15.20;99.90;;;;;;5073484;28;20032;-44
2022/06/29 04:01:57;;;;;;;6.13;3.65;;;16.00;99.90;;;;;;5073079;28;20032;-43
2022/06/29 04:04:23;;;;;;;7.75;4.20;;;15.30;99.90;;;;;;5074706;28;20044;-46
2022/06/29 04:06:48;;;;;;;10.25;4.65;;;15.10;99.90;;;;;;5077504;28;20549;-44
2022/06/29 04:09:16;;;;;;;10.20;4.47;;;15.20;99.90;;;;;;5077127;28;20036;-44
2022/06/29 04:11:54;;;;;;;5.70;3.85;;;15.20;99.90;;;;;;5076987;28;20044;-43
2022/06/29 04:14:23;;;;;;;6.43;3.95;;;15.30;99.90;;;;;;5076989;28;20115;-44
2022/06/29 04:16:49;;;;;;;7.20;4.03;;;17.50;99.90;;;;;;5077276;28;20047;-43
2022/06/29 04:19:15;;;;;;;8.40;3.95;;;15.70;99.90;;;;;;5076657;28;20504;-44
2022/06/29 04:21:42;;;;;;;9.15;4.15;;;15.80;99.90;;;;;;5071919;28;20086;-45
2022/06/29 04:24:09;;;;;;;7.22;4.43;;;15.50;99.90;;;;;;5077436;28;20145;-46
2022/06/29 04:26:34;;;;;;;6.35;4.00;;;15.20;99.90;;;;;;5076081;28;20279;-47
2022/06/29 04:29:01;;;;;;;8.38;3.75;;;15.30;99.90;;;;;;5076035;28;20633;-47
2022/06/29 04:31:27;;;;;;;8.50;4.28;;;15.90;99.90;;;;;;5075550;28;20408;-43
2022/06/29 04:33:52;;;;;;;8.02;3.97;;;15.50;99.90;;;;;;5075573;28;20043;-44
2022/06/29 04:36:19;;;;;;;10.45;4.28;;;15.50;99.90;;;;;;5074590;28;20927;-43
2022/06/29 04:38:45;;;;;;;6.60;4.32;;;15.70;99.90;;;;;;5074201;28;20390;-43
2022/06/29 04:41:11;;;;;;;8.15;4.50;;;15.80;99.90;;;;;;5074574;28;20040;-43
2022/06/29 04:43:37;;;;;;;8.82;4.28;;;15.80;99.90;;;;;;5074120;28;20497;-43
2022/06/29 04:46:21;;;;;;;7.82;4.32;;;15.90;99.90;;;;;;5075477;28;20051;-44
2022/06/29 04:48:58;;;;;;;6.90;3.97;;;17.10;99.90;;;;;;5072866;28;20063;-44
2022/06/29 04:51:28;;;;;;;7.57;4.10;;;15.90;99.90;;;;;;5075103;28;20123;-45
2022/06/29 04:53:55;;;;;;;7.97;4.20;;;16.00;99.90;;;;;;5073989;28;20051;-43
2022/06/29 04:56:23;;;;;;;7.45;4.63;;;16.50;99.90;;;;;;5074775;28;20319;-43
2022/06/29 04:58:51;;;;;;;8.20;4.30;;;16.30;99.90;;;;;;5074475;28;20512;-43
2022/06/29 05:01:18;;;;;;;9.00;4.90;;;18.10;99.90;;;;;;5074744;28;20122;-44
2022/06/29 05:03:43;;;;;;;6.38;3.95;;;16.30;99.90;;;;;;5073842;28;20036;-44
2022/06/29 05:06:09;;;;;;;10.00;4.72;;;16.60;99.90;;;;;;5072243;28;20047;-45
2022/06/29 05:08:37;;;;;;;7.95;4.13;;;16.40;99.90;;;;;;5072596;28;20570;-45
2022/06/29 05:11:02;;;;;;;7.90;3.70;;;16.70;99.90;;;;;;5073154;28;20036;-45
2022/06/29 05:13:28;;;;;;;9.88;4.50;;;16.50;99.90;;;;;;5074035;28;20548;-46
2022/06/29 05:15:54;;;;;;;8.90;4.80;;;16.50;99.90;;;;;;5072931;28;20751;-43
2022/06/29 05:18:20;;;;;;;8.55;4.25;;;18.30;99.90;;;;;;5074496;28;20127;-43
2022/06/29 05:20:47;;;;;;;7.35;4.10;;;16.60;99.90;;;;;;5075386;28;20044;-45
2022/06/29 05:23:13;;;;;;;7.55;4.07;;;19.10;99.90;;;;;;5075163;28;20105;-45
2022/06/29 05:25:39;;;;;;;10.40;4.20;;;17.20;99.90;;;;;;5075564;28;20040;-43
2022/06/29 05:28:05;;;;;;;6.55;3.95;;;17.70;99.90;;;;;;5071659;28;20047;-43
2022/06/29 05:30:31;;;;;;;7.25;3.95;;;16.90;99.90;;;;;;5075506;28;20055;-44
2022/06/29 05:32:57;;;;;;;10.13;4.20;;;17.10;99.90;;;;;;5072673;28;20036;-46
2022/06/29 05:35:25;;;;;;;8.43;4.70;;;16.70;99.90;;;;;;5073946;28;20032;-43
2022/06/29 05:37:50;;;;;;;10.27;4.50;;;16.80;99.90;;;;;;5070715;28;20535;-44
2022/06/29 05:40:16;;;;;;;7.20;4.15;;;18.80;99.90;;;;;;5074699;28;20044;-47
2022/06/29 05:42:44;;;;;;;6.05;3.92;;;17.20;99.90;;;;;;5075026;28;20040;-43
2022/06/29 05:45:10;;;;;;;6.15;3.63;;;17.00;99.90;;;;;;5075734;28;20097;-48
2022/06/29 05:47:35;;;;;;;6.38;3.95;;;17.20;99.90;;;;;;5073391;28;20339;-49
2022/06/29 05:50:01;;;;;;;6.95;4.35;;;18.80;99.90;;;;;;5074149;28;20036;-44
2022/06/29 05:52:27;;;;;;;8.50;4.07;;;17.20;99.90;;;;;;5073784;28;20044;-45
2022/06/29 05:54:53;;;;;;;8.13;4.20;;;19.10;99.90;;;;;;5074194;28;20044;-46
2022/06/29 05:57:19;;;;;;;5.45;3.63;;;17.30;99.90;;;;;;5073243;28;20046;-47
2022/06/29 05:59:50;;;;;;;8.00;4.05;;;18.80;99.90;;;;;;5072207;28;20067;-49
2022/06/29 06:02:15;;;;;;;9.23;3.97;;;17.50;99.90;;;;;;5073089;28;20997;-45
2022/06/29 06:04:42;;;;;;;5.50;3.65;;;17.90;99.90;;;;;;5074092;28;20052;-49
2022/06/29 06:07:11;;;;;;;7.53;4.10;;;17.90;99.90;;;;;;5072661;28;20040;-46
2022/06/29 06:09:37;;;;;;;8.77;3.85;;;18.00;99.90;;;;;;5072493;28;20397;-48
2022/06/29 06:12:03;;;;;;;7.70;3.63;;;18.10;99.90;;;;;;5071310;28;20409;-47
2022/06/29 06:14:29;;;;;;;5.05;3.58;;;18.20;99.90;;;;;;5073117;28;20413;-45
2022/06/29 06:16:54;;;;;;;5.80;3.42;;;18.50;99.90;;;;;;5071367;28;20047;-49
2022/06/29 06:19:20;;;;;;;5.35;2.95;;;18.70;99.90;;;;;;5071034;28;20130;-48
2022/06/29 06:21:46;;;;;;;5.78;3.05;;;19.60;99.90;;;;;;5071412;28;20773;-46
2022/06/29 06:24:11;;;;;;;5.40;2.80;;;20.30;99.90;;;;;;5072726;28;20072;-49
2022/06/29 06:26:37;;;;;;;5.70;2.63;;;20.30;99.90;;;;;;5073412;28;20563;-45
2022/06/29 06:29:03;;;;;;;8.52;2.80;;;20.20;99.90;;;;;;5071227;28;20061;-43
2022/06/29 06:31:29;;;;;;;9.77;2.90;;;20.40;99.90;;;;;;5073637;28;20040;-44
2022/06/29 06:33:55;;;;;;;7.03;2.70;;;20.50;99.90;;;;;;5072253;28;20825;-43
2022/06/29 06:36:21;;;;;;;7.53;2.53;;;20.50;99.90;;;;;;5072878;28;20151;-45
2022/06/29 06:38:46;;;;;;;5.93;2.80;;;18.90;99.90;;;;;;5070526;28;20177;-45
2022/06/29 06:41:27;;;;;;;4.90;2.42;;;20.90;99.90;;;;;;5072901;28;20044;-44
2022/06/29 06:43:55;;;;;;;5.75;2.40;;;20.70;99.90;;;;;;5073731;28;20140;-46
2022/06/29 06:46:22;;;;;;;8.95;2.70;;;20.70;99.90;;;;;;5073322;28;20044;-44
2022/06/29 06:48:50;;;;;;;9.27;2.30;;;20.90;99.90;;;;;;5072922;28;20131;-46
2022/06/29 06:51:17;;;;;;;7.18;2.53;;;20.80;99.90;;;;;;5072032;28;20378;-43
2022/06/29 06:53:43;;;;;;;4.72;2.10;;;21.00;99.90;;;;;;5072824;28;20873;-43
2022/06/29 06:56:09;;;;;;;4.60;2.13;;;23.50;99.90;;;;;;5074430;28;20036;-44
2022/06/29 06:58:37;;;;;;;6.50;2.28;;;22.10;99.90;;;;;;5073444;28;20038;-46
2022/06/29 07:01:07;;;;;;;6.65;2.25;;;22.30;99.90;;;;;;5071484;28;20081;-43
2022/06/29 07:03:37;;;;;;;7.72;2.67;;;23.10;99.90;;;;;;5074766;28;20063;-45
2022/06/29 07:06:13;;;;;;;5.15;1.88;;;22.90;99.90;;;;;;5074106;28;20273;-46
2022/06/29 07:08:39;;;;;;;3.42;1.70;;;24.20;99.90;;;;;;5073685;28;20041;-44
2022/06/29 07:11:07;;;;;;;6.40;1.40;;;23.20;99.90;;;;;;5073730;28;20085;-45
2022/06/29 07:13:33;;;;;;;5.13;1.67;;;23.60;99.90;;;;;;5072551;28;20039;-44
2022/06/29 07:16:04;;;;;;;4.15;1.45;;;24.70;99.90;;;;;;5072431;28;20043;-46
2022/06/29 07:18:30;;;;;;;3.67;1.45;;;25.40;99.90;;;;;;5072504;28;20036;-45
2022/06/29 07:20:56;;;;;;;4.43;1.60;;;26.10;99.90;;;;;;5071860;28;20036;-45
2022/06/29 07:23:21;;;;;;;2.72;1.38;;;26.70;99.90;;;;;;5072959;28;20500;-48
2022/06/29 07:25:50;;;;;;;4.60;1.70;;;27.10;99.90;;;;;;5072286;28;20044;-44
2022/06/29 07:28:16;;;;;;;3.92;1.38;;;27.50;99.90;;;;;;5072027;28;20630;-45
2022/06/29 07:30:42;;;;;;;3.25;1.13;;;28.10;99.90;;;;;;5072730;28;20131;-47
2022/06/29 07:33:09;;;;;;;5.97;1.40;;;28.70;99.90;;;;;;5072661;28;20396;-48
2022/06/29 07:35:36;;;;;;;3.20;1.13;;;28.90;99.90;;;;;;5072728;28;20036;-49
2022/06/29 07:38:02;;;;;;;5.80;1.50;;;29.50;99.90;;;;;;5071483;28;20162;-47
2022/06/29 07:40:27;;;;;;;4.20;1.17;;;29.80;99.90;;;;;;5074761;28;20046;-44
2022/06/29 07:42:55;;;;;;;5.18;1.40;;;30.00;99.90;;;;;;5076148;28;20044;-48
2022/06/29 07:45:21;;;;;;;2.05;0.95;;;30.30;99.90;;;;;;5076611;28;20040;-44
2022/06/29 07:47:48;;;;;;;2.67;1.02;;;30.30;99.90;;;;;;5074461;28;20101;-47
2022/06/29 07:50:13;;;;;;;2.83;1.20;;;30.60;99.90;;;;;;5075674;28;20055;-45
2022/06/29 07:52:42;;;;;;;4.18;1.20;;;30.80;99.90;;;;;;5075480;28;20063;-46
2022/06/29 07:55:08;;;;;;;4.30;1.20;;;30.70;99.90;;;;;;5076834;28;20616;-44
2022/06/29 07:57:35;;;;;;;3.20;1.25;;;30.80;99.90;;;;;;5076982;28;20244;-48
2022/06/29 08:00:06;;;;;;;3.97;1.30;;;33.70;99.90;;;;;;5075476;28;20121;-50
2022/06/29 08:02:32;;;;;;;3.25;1.30;;;31.60;98.20;;;;;;5076498;28;20050;-47
2022/06/29 08:04:59;;;;;;;5.45;1.02;;;31.70;97.70;;;;;;5074579;28;20264;-48
2022/06/29 08:07:25;;;;;;;3.10;1.30;;;31.60;96.70;;;;;;5075443;28;20040;-49
2022/06/29 08:09:53;;;;;;;5.30;0.85;;;31.50;96.80;;;;;;5077023;28;20043;-45
2022/06/29 08:12:19;;;;;;;1.92;1.17;;;31.60;97.50;;;;;;5077235;28;20123;-46
2022/06/29 08:14:44;;;;;;;1.35;0.80;;;31.90;96.60;;;;;;5076422;28;20036;-48
2022/06/29 08:17:10;;;;;;;2.72;0.82;;;32.30;95.40;;;;;;5074206;28;20657;-48
2022/06/29 08:19:35;;;;;;;2.42;0.98;;;32.00;94.20;;;;;;5076659;28;20493;-48
2022/06/29 08:22:03;;;;;;;4.60;1.05;;;31.60;94.00;;;;;;5058069;28;20164;-50
2022/06/29 08:24:29;;;;;;;3.25;0.98;;;31.50;93.90;;;;;;5076567;28;20108;-47
2022/06/29 08:26:54;;;;;;;2.95;0.93;;;31.30;93.80;;;;;;5077045;28;20585;-46
2022/06/29 08:29:24;;;;;;;2.55;0.90;;;31.30;94.00;;;;;;5077282;28;20477;-51
2022/06/29 08:31:49;;;;;;;2.97;0.90;;;31.20;93.70;;;;;;5076745;28;20040;-47
2022/06/29 08:34:24;;;;;;;4.30;0.93;;;31.20;93.90;;;;;;5075563;28;20485;-45
2022/06/29 08:36:50;;;;;;;4.53;1.10;;;31.60;93.10;;;;;;5076137;28;20075;-49
2022/06/29 08:39:17;;;;;;;2.85;0.90;;;31.40;93.50;;;;;;5076115;28;20942;-50
2022/06/29 08:41:43;;;;;;;3.22;1.10;;;31.50;93.20;;;;;;5074766;28;20047;-50
2022/06/29 08:44:09;;;;;;;4.63;1.00;;;31.10;92.70;;;;;;5075341;28;20156;-47
2022/06/29 08:46:35;;;;;;;3.83;1.48;;;30.20;93.20;;;;;;5075719;28;20118;-49
2022/06/29 08:49:03;;;;;;;2.92;1.02;;;29.20;93.70;;;;;;5074013;28;20052;-47
2022/06/29 08:51:34;;;;;;;4.10;1.27;;;26.70;93.90;;;;;;5075120;28;20044;-51
2022/06/29 08:54:00;;;;;;;;;;;27.80;95.60;;;;;;5073931;28;20101;-46
2022/06/29 08:56:26;;;;;;;4.43;1.20;;;27.40;96.90;;;;;;5074970;28;19920;-46
2022/06/29 08:58:54;;;;;;;4.03;1.10;;;27.10;96.80;;;;;;5072640;28;20521;-47
2022/06/29 09:01:20;;;;;;;2.95;1.02;;;27.10;97.30;;;;;;5075868;28;20054;-48
2022/06/29 09:03:46;;;;;;;3.00;1.10;;;27.10;97.90;;;;;;5074598;28;20028;-48
2022/06/29 09:06:11;;;;;;;5.45;1.20;;;26.90;97.70;;;;;;5072357;28;20122;-49
2022/06/29 09:08:37;;;;;;;2.67;1.13;;;27.20;98.30;;;;;;5073934;28;20052;-49
2022/06/29 09:11:28;;;;;;;7.22;1.27;;;27.70;98.70;;;;;;5073781;28;20400;-51
2022/06/29 09:14:14;;;;;;;2.50;0.93;;;28.00;97.90;;;;;;5073843;28;20456;-50
2022/06/29 09:16:57;;;;;;;4.57;1.55;;;28.00;97.40;;;;;;5074164;28;20040;-50
2022/06/29 09:19:30;;;;;;;5.15;1.15;;;27.90;97.60;;;;;;5073622;28;20047;-48
2022/06/29 09:21:58;;;;;;;4.85;1.10;;;28.10;97.70;;;;;;5073224;28;20131;-50
2022/06/29 09:24:27;;;;;;;4.47;1.30;;;27.70;98.00;;;;;;5071496;28;20098;-47
2022/06/29 09:26:58;;;;;;;4.72;1.48;;;27.40;97.70;;;;;;5073362;28;20036;-49
2022/06/29 09:29:26;;;;;;;3.92;1.23;;;25.90;97.30;;;;;;5073933;28;20881;-49
2022/06/29 09:32:06;;;;;;;2.97;1.40;;;27.50;98.10;;;;;;5075880;28;20102;-47
2022/06/29 09:34:32;;;;;;;3.17;1.30;;;27.60;99.10;;;;;;5076312;28;20224;-47
2022/06/29 09:37:00;;;;;;;4.63;1.27;;;27.10;97.80;;;;;;5076288;28;20040;-47
2022/06/29 09:39:40;;;;;;;5.00;1.55;;;27.00;98.30;;;;;;5073764;28;20687;-48
2022/06/29 09:42:08;;;;;;;4.45;1.52;;;25.30;98.20;;;;;;5074169;28;20117;-46
2022/06/29 09:44:34;;;;;;;4.07;1.38;;;26.60;98.50;;;;;;5077241;28;20095;-50
2022/06/29 09:47:05;;;;;;;2.70;1.20;;;26.90;98.80;;;;;;5072266;28;20119;-48
2022/06/29 09:49:33;;;;;;;3.08;1.25;;;27.20;99.40;;;;;;5074585;28;20052;-48
2022/06/29 09:52:00;;;;;;;2.92;1.20;;;27.20;99.00;;;;;;5074427;28;20040;-46
2022/06/29 09:54:31;;;;;;;5.10;1.70;;;27.30;99.80;;;;;;5073169;28;20078;-48
2022/06/29 09:56:57;;;;;;;3.92;1.30;;;27.40;99.20;;;;;;5075075;28;20040;-49
2022/06/29 10:02:37;;;;;;;5.38;1.30;;;27.00;98.30;;;;;;5072669;28;20123;-48
2022/06/29 10:05:06;;;;;;;4.90;1.50;;;27.00;98.20;;;;;;5072145;28;21086;-47
2022/06/29 10:07:35;;;;;;;4.50;1.42;;;27.10;97.80;;;;;;5074415;28;20048;-49
2022/06/29 10:10:03;;;;;;;3.67;1.40;;;26.80;98.50;;;;;;5073554;28;20039;-47
2022/06/29 10:15:57;;;;;;;4.05;1.17;;;27.20;98.10;;;;;;4991176;28;20353;-49
2022/06/29 10:18:34;;;;;;;4.38;1.38;;;27.10;99.50;;;;;;4991928;28;20192;-49
2022/06/29 10:21:00;;;;;;;3.80;1.42;;;27.30;97.90;;;;;;4991593;28;20038;-49
2022/06/29 10:23:49;;;;;;;4.03;1.40;;;27.30;99.70;;;;;;4991099;28;20641;-48
2022/06/29 10:26:35;;;;;;;4.10;1.23;;;27.50;98.50;;;;;;4989746;28;20943;-49
2022/06/29 10:29:09;;;;;;;2.97;1.38;;;27.60;98.20;;;;;;4991311;28;20038;-49
2022/06/29 10:31:53;;;;;;;6.35;1.40;;;27.70;97.90;;;;;;4990808;28;20045;-49
2022/06/29 10:34:31;;;;;;;3.47;1.25;;;28.00;98.40;;;;;;4974393;28;20518;-48
2022/06/29 10:37:02;;;;;;;3.05;1.30;;;27.70;98.00;;;;;;4991539;28;21006;-49
2022/06/29 10:39:43;;;;;;;5.75;1.50;;;27.80;96.70;;;;;;4991286;28;20169;-46
2022/06/29 10:45:54;;;;;;;4.07;1.17;;;27.90;97.20;;;;;;4991040;28;20428;-45
2022/06/29 10:48:20;;;;;;;3.22;1.00;;;28.30;97.00;;;;;;4955891;28;20057;-48
2022/06/29 10:50:46;;;;;;;6.63;1.38;;;28.40;96.40;;;;;;5012626;28;20345;-46
2022/06/29 10:53:15;;;;;;;2.22;1.10;;;28.10;95.90;;;;;;5011302;28;20106;-46
2022/06/29 10:55:42;;;;;;;4.18;1.45;;;27.90;95.50;;;;;;5011298;28;20041;-49
2022/06/29 10:58:08;;;;;;;3.53;1.30;;;27.90;95.60;;;;;;5012594;28;20041;-47
2022/06/29 11:00:52;;;;;;;2.40;1.10;;;27.70;96.30;;;;;;5011794;28;20049;-45
2022/06/29 11:03:19;;;;;;;4.15;1.00;;;28.30;95.70;;;;;;5011705;28;20171;-46
2022/06/29 11:16:54;;;;;;;2.83;1.30;;;28.40;94.00;;;;;;5010775;28;20045;-44
2022/06/29 11:19:27;;;;;;;2.55;1.23;;;28.40;94.20;;;;;;5050462;28;20044;-47
2022/06/29 11:22:17;;;;;;;1.60;1.10;;;28.40;94.90;;;;;;5072545;28;20458;-43
2022/06/29 11:25:09;;;;;;;5.38;1.20;;;28.40;95.10;;;;;;5072893;28;20051;-46
2022/06/29 11:27:39;;;;;;;3.63;1.38;;;28.60;95.20;;;;;;5070947;28;20048;-45
2022/06/29 11:30:07;;;;;;;2.38;1.00;;;28.60;93.90;;;;;;5072251;28;20572;-48
2022/06/29 11:32:45;;;;;;;1.67;1.00;;;28.70;94.20;;;;;;5073598;28;20070;-45
2022/06/29 11:35:13;;;;;;;3.58;1.08;;;28.50;94.00;;;;;;5072365;28;20036;-46
2022/06/29 11:37:46;;;;;;;3.03;1.15;;;28.30;94.00;;;;;;5071368;28;20044;-45
2022/06/29 11:40:17;;;;;;;2.50;1.20;;;28.30;93.10;;;;;;5072450;28;20303;-44
2022/06/29 11:45:45;;;;;;;6.13;1.48;;;28.50;92.50;;;;;;5073523;28;20101;-45
2022/06/29 11:48:21;;;;;;;2.70;1.08;;;28.50;93.50;;;;;;5071911;28;20535;-47
2022/06/29 11:50:56;;;;;;;3.63;1.30;;;28.30;92.90;;;;;;5071000;28;20048;-48
2022/06/29 11:53:43;;;;;;;3.85;1.17;;;28.60;93.80;;;;;;5072838;28;20046;-44
2022/06/29 11:56:18;;;;;;;1.80;0.80;;;29.00;95.40;;;;;;5072803;28;20054;-47
2022/06/29 11:58:49;;;;;;;2.40;1.20;;;28.80;93.80;;;;;;5072565;28;20512;-46
2022/06/29 12:01:18;;;;;;;2.70;1.00;;;28.70;95.00;;;;;;5073663;28;21883;-44
2022/06/29 12:03:52;;;;;;;3.55;1.23;;;28.80;95.00;;;;;;5075228;28;20057;-48
2022/06/29 12:06:19;;;;;;;2.42;1.20;;;28.90;94.80;;;;;;5072869;28;20119;-45
2022/06/29 12:08:46;;;;;;;2.85;0.90;;;29.00;95.30;;;;;;5073566;28;20501;-48
2022/06/29 12:11:14;;;;;;;4.38;1.17;;;29.00;95.30;;;;;;5072615;28;20044;-44
2022/06/29 12:13:39;;;;;;;4.72;1.10;;;29.20;95.30;;;;;;5073244;28;20710;-48
2022/06/29 12:16:05;;;;;;;1.73;1.05;;;28.80;94.90;;;;;;5074169;28;20111;-47
2022/06/29 12:18:33;;;;;;;5.00;1.38;;;29.00;94.30;;;;;;5072944;28;20750;-48
2022/06/29 12:20:58;;;;;;;1.60;1.02;;;28.90;94.50;;;;;;5073892;28;20035;-46
2022/06/29 12:23:24;;;;;;;2.15;1.05;;;29.00;94.20;;;;;;5073630;28;20032;-46
2022/06/29 12:25:50;;;;;;;3.65;1.52;;;28.80;93.20;;;;;;5075241;28;20040;-45
2022/06/29 12:28:15;;;;;;;4.50;1.35;;;28.90;94.40;;;;;;5075141;28;20051;-44
2022/06/29 12:30:42;;;;;;;3.38;1.40;;;28.80;94.90;;;;;;5076410;28;20504;-48
2022/06/29 12:33:10;;;;;;;5.88;1.30;;;28.80;93.40;;;;;;5075036;28;20039;-46
2022/06/29 12:35:36;;;;;;;4.28;1.20;;;28.80;93.60;;;;;;5075572;28;20040;-49
2022/06/29 12:38:02;;;;;;;3.03;1.30;;;28.80;94.30;;;;;;5075327;28;20592;-44
2022/06/29 12:40:30;;;;;;;3.88;1.52;;;28.90;95.40;;;;;;5075513;28;20066;-46
2022/06/29 12:42:56;;;;;;;2.42;1.30;;;28.80;95.00;;;;;;5075954;28;20040;-47
2022/06/29 12:45:24;;;;;;;3.47;1.33;;;28.50;92.80;;;;;;5076502;28;20036;-45
2022/06/29 12:47:50;;;;;;;2.22;1.50;;;29.00;94.30;;;;;;5074779;28;20052;-46
2022/06/29 12:50:17;;;;;;;4.88;1.88;;;28.70;94.70;;;;;;5076784;28;20047;-44
2022/06/29 12:52:47;;;;;;;4.38;1.80;;;28.80;94.50;;;;;;5075111;28;20212;-46
2022/06/29 12:55:14;;;;;;;3.05;1.80;;;28.90;93.70;;;;;;5075528;28;20040;-46
2022/06/29 12:57:40;;;;;;;3.53;1.77;;;28.80;94.40;;;;;;5076575;28;20032;-46
2022/06/29 13:00:08;;;;;;;3.50;1.80;;;28.80;94.50;;;;;;5075274;28;20215;-48
2022/06/29 13:02:34;;;;;;;4.30;1.73;;;28.30;94.70;;;;;;5075192;28;20143;-43
2022/06/29 13:04:59;;;;;;;4.03;1.92;;;28.80;94.90;;;;;;5075741;28;20407;-44
2022/06/29 13:07:27;;;;;;;4.55;2.05;;;28.50;95.30;;;;;;5074857;28;20032;-44
2022/06/29 13:09:54;;;;;;;5.05;2.05;;;28.80;95.50;;;;;;5075519;28;20044;-48
2022/06/29 13:12:19;;;;;;;3.80;2.00;;;28.60;95.10;;;;;;5073526;28;20561;-46
2022/06/29 13:14:45;;;;;;;4.80;2.08;;;28.80;95.40;;;;;;5076220;28;20040;-43
2022/06/29 13:17:11;;;;;;;4.22;1.73;;;28.70;95.50;;;;;;5075847;28;20125;-44
2022/06/29 13:19:37;;;;;;;3.63;2.10;;;28.50;95.80;;;;;;5075996;28;20039;-44